Time;durP1;ratioP1;P1;durP2;ratioP2;P2;SDS_P1;SDS_P2;PMS_P1;PMS_P2;Temp;Humidity;BMP_temperature;BMP_pressure;BME280_temperature;BME280_humidity;BME280_pressure;Samples;Min_cycle;Max_cycle;Signal;HPM_P1;HPM_P2
2021/04/02 00:00:13;;;;;;;14.60;8.43;;;6.10;99.90;;;;;;5019606;28;20463;-45
2021/04/02 00:02:40;;;;;;;13.10;8.80;;;6.00;99.90;;;;;;5018867;28;20464;-44
2021/04/02 00:05:08;;;;;;;10.80;8.90;;;6.00;99.90;;;;;;5006270;28;20469;-45
2021/04/02 00:07:35;;;;;;;10.40;9.40;;;5.80;99.90;;;;;;5017710;28;20456;-48
2021/04/02 00:10:01;;;;;;;11.20;10.00;;;5.90;1.00;;;;;;5019443;28;20467;-45
2021/04/02 00:12:28;;;;;;;16.37;12.43;;;5.90;1.00;;;;;;5019024;28;20764;-45
2021/04/02 00:14:55;;;;;;;18.60;12.17;;;5.80;1.00;;;;;;5019005;28;20542;-49
2021/04/02 00:17:22;;;;;;;12.90;11.60;;;5.70;1.00;;;;;;5018867;28;20467;-45
2021/04/02 00:19:48;;;;;;;16.03;14.17;;;5.70;1.00;;;;;;5019506;28;20464;-45
2021/04/02 00:22:15;;;;;;;15.43;13.63;;;5.80;1.00;;;;;;5018128;28;20467;-45
2021/04/02 00:24:42;;;;;;;17.33;14.70;;;5.90;1.00;;;;;;5019137;28;20504;-46
2021/04/02 00:27:08;;;;;;;16.20;14.00;;;6.00;1.00;;;;;;5018161;28;20471;-45
2021/04/02 00:29:35;;;;;;;15.67;13.97;;;5.90;1.00;;;;;;5018877;28;20473;-49
2021/04/02 00:32:02;;;;;;;20.10;15.67;;;5.90;1.00;;;;;;5018789;28;20542;-45
2021/04/02 00:34:31;;;;;;;15.50;13.57;;;5.80;1.00;;;;;;5018804;28;20452;-46
2021/04/02 00:36:57;;;;;;;19.07;14.60;;;5.80;1.00;;;;;;5018379;28;20475;-45
2021/04/02 00:39:24;;;;;;;16.70;12.40;;;5.90;1.00;;;;;;5018613;28;20487;-45
2021/04/02 00:41:50;;;;;;;13.70;9.83;;;5.90;99.90;;;;;;5019045;28;20780;-46
2021/04/02 00:44:17;;;;;;;10.07;9.00;;;5.80;99.90;;;;;;5018592;28;20940;-45
2021/04/02 00:46:43;;;;;;;12.20;8.70;;;5.80;1.00;;;;;;5019004;28;20469;-45
2021/04/02 00:49:10;;;;;;;20.43;9.23;;;5.90;99.90;;;;;;5018036;28;20464;-45
2021/04/02 00:51:38;;;;;;;10.83;8.10;;;5.80;99.90;;;;;;5018343;28;20471;-45
2021/04/02 00:54:05;;;;;;;10.00;8.47;;;5.70;99.90;;;;;;5018144;28;20460;-51
2021/04/02 00:56:32;;;;;;;12.13;8.40;;;5.70;1.00;;;;;;5018088;28;20518;-45
2021/04/02 00:58:58;;;;;;;13.97;9.57;;;5.70;1.00;;;;;;5018196;28;20471;-45
2021/04/02 01:01:25;;;;;;;10.23;9.23;;;5.70;1.00;;;;;;5018919;28;20471;-51
2021/04/02 01:03:54;;;;;;;11.23;9.93;;;5.70;99.90;;;;;;5017896;28;20495;-45
2021/04/02 01:06:25;;;;;;;12.50;9.00;;;5.70;99.90;;;;;;5022406;23;20493;-45
2021/04/02 01:08:52;;;;;;;17.97;10.97;;;5.80;99.90;;;;;;5009105;28;20468;-44
2021/04/02 01:11:21;;;;;;;13.07;9.37;;;5.80;99.90;;;;;;5000747;28;20783;-44
2021/04/02 01:13:49;;;;;;;11.70;9.83;;;5.80;99.90;;;;;;5006734;28;20757;-49
2021/04/02 01:16:18;;;;;;;12.53;10.50;;;5.90;99.90;;;;;;5012482;28;20519;-45
2021/04/02 01:18:51;;;;;;;13.80;11.17;;;5.90;99.90;;;;;;5009528;28;20464;-44
2021/04/02 01:21:25;;;;;;;18.97;11.70;;;5.80;99.90;;;;;;5017999;28;20464;-46
2021/04/02 01:24:16;;;;;;;14.73;11.50;;;5.70;99.90;;;;;;5017400;28;20488;-44
2021/04/02 01:27:22;;;;;;;16.63;11.63;;;5.70;1.00;;;;;;5000068;28;20465;-46
2021/04/02 01:29:56;;;;;;;16.60;11.47;;;5.70;1.00;;;;;;4990472;28;20815;-44
2021/04/02 01:32:26;;;;;;;17.60;13.70;;;5.80;1.00;;;;;;5008265;28;20803;-47
2021/04/02 01:34:57;;;;;;;21.40;14.67;;;5.80;1.00;;;;;;5017946;28;20459;-44
2021/04/02 01:37:28;;;;;;;18.00;13.83;;;5.80;1.00;;;;;;5017002;28;20824;-45
2021/04/02 01:39:58;;;;;;;17.13;14.37;;;5.80;1.00;;;;;;5018258;28;20491;-46
2021/04/02 01:42:27;;;;;;;24.40;15.10;;;5.90;1.00;;;;;;5006882;28;20461;-44
2021/04/02 01:44:58;;;;;;;16.67;14.97;;;5.90;99.90;;;;;;4998218;28;20877;-44
2021/04/02 01:47:28;;;;;;;18.60;15.80;;;5.90;99.90;;;;;;5017223;28;20471;-46
2021/04/02 01:49:59;;;;;;;19.87;16.17;;;5.80;99.90;;;;;;5017205;28;20464;-46
2021/04/02 01:52:27;;;;;;;16.30;14.50;;;5.70;1.00;;;;;;5017607;28;20467;-47
2021/04/02 01:54:54;;;;;;;15.73;13.73;;;5.70;1.00;;;;;;5016565;28;20551;-44
2021/04/02 01:57:23;;;;;;;19.90;15.77;;;5.70;1.00;;;;;;5017271;28;20522;-44
2021/04/02 01:59:53;;;;;;;22.40;15.70;;;5.80;1.00;;;;;;5017308;28;20460;-46
2021/04/02 02:02:22;;;;;;;16.83;14.90;;;5.80;1.00;;;;;;5016730;28;20463;-46
2021/04/02 02:04:50;;;;;;;16.43;13.77;;;5.90;1.00;;;;;;5008006;28;20837;-44
2021/04/02 02:07:18;;;;;;;17.80;14.53;;;6.00;99.90;;;;;;5014976;28;20467;-50
2021/04/02 02:09:46;;;;;;;17.03;15.13;;;6.00;99.90;;;;;;5013913;28;20464;-44
2021/04/02 02:12:16;;;;;;;17.87;15.90;;;5.90;99.90;;;;;;5017668;28;20464;-46
2021/04/02 02:14:49;;;;;;;18.63;14.50;;;6.00;99.90;;;;;;4998278;28;20457;-44
2021/04/02 02:17:21;;;;;;;17.43;13.93;;;5.90;99.90;;;;;;4997467;28;20502;-44
2021/04/02 02:19:49;;;;;;;19.83;15.07;;;5.80;99.90;;;;;;4998152;28;20968;-44
2021/04/02 02:22:18;;;;;;;17.40;13.23;;;5.70;1.00;;;;;;5008466;28;20460;-44
2021/04/02 02:24:45;;;;;;;15.43;13.30;;;5.60;1.00;;;;;;5016939;28;20490;-45
2021/04/02 02:27:12;;;;;;;14.87;13.20;;;5.60;1.00;;;;;;5016924;28;20518;-44
2021/04/02 02:29:39;;;;;;;15.67;13.33;;;5.50;1.00;;;;;;5017696;28;20467;-48
2021/04/02 02:32:08;;;;;;;16.50;13.03;;;5.50;1.00;;;;;;5017875;28;20460;-47
2021/04/02 02:34:35;;;;;;;14.97;12.50;;;5.40;29.00;;;;;;5017786;28;20765;-45
2021/04/02 02:37:03;;;;;;;16.43;12.60;;;5.40;99.90;;;;;;5016783;28;20525;-46
2021/04/02 02:39:29;;;;;;;15.90;12.70;;;5.30;99.90;;;;;;5016727;28;20873;-45
2021/04/02 02:41:56;;;;;;;15.97;13.10;;;5.30;1.00;;;;;;5016816;28;20460;-47
2021/04/02 02:44:24;;;;;;;14.27;12.73;;;5.20;1.00;;;;;;5016987;28;20526;-44
2021/04/02 02:46:50;;;;;;;17.37;12.57;;;5.20;1.00;;;;;;5017269;28;20460;-44
2021/04/02 02:49:19;;;;;;;21.30;13.50;;;5.30;1.00;;;;;;5016992;28;20464;-46
2021/04/02 02:51:48;;;;;;;20.30;13.73;;;5.30;1.00;;;;;;5017423;28;20742;-46
2021/04/02 02:54:20;;;;;;;16.80;13.63;;;5.40;1.00;;;;;;5018247;28;20728;-44
2021/04/02 02:56:49;;;;;;;17.63;14.03;;;5.30;1.00;;;;;;5017284;28;20903;-48
2021/04/02 02:59:20;;;;;;;18.00;12.73;;;5.40;99.90;;;;;;5016928;28;20526;-45
2021/04/02 03:01:48;;;;;;;17.83;14.13;;;5.30;99.90;;;;;;5017107;28;20751;-49
2021/04/02 03:04:16;;;;;;;19.43;14.67;;;5.30;1.00;;;;;;5006610;28;20484;-44
2021/04/02 03:06:45;;;;;;;16.70;15.00;;;5.20;1.00;;;;;;5016821;28;20760;-45
2021/04/02 03:09:16;;;;;;;16.60;14.80;;;5.30;1.00;;;;;;5016698;28;20555;-46
2021/04/02 03:11:44;;;;;;;20.53;14.10;;;5.40;1.00;;;;;;5016913;28;20499;-45
2021/04/02 03:14:12;;;;;;;18.30;15.70;;;5.40;99.90;;;;;;5016614;28;20518;-44
2021/04/02 03:16:43;;;;;;;17.43;14.27;;;5.30;1.00;;;;;;5017225;28;20455;-44
2021/04/02 03:19:11;;;;;;;19.00;14.97;;;5.30;1.00;;;;;;5017168;28;20468;-44
2021/04/02 03:21:38;;;;;;;19.20;14.83;;;5.30;1.00;;;;;;5020008;28;20768;-46
2021/04/02 03:24:07;;;;;;;20.63;15.20;;;5.40;36.00;;;;;;5019972;28;20492;-44
2021/04/02 03:26:34;;;;;;;19.97;16.00;;;5.30;5.00;;;;;;5020760;28;20464;-44
2021/04/02 03:29:02;;;;;;;26.50;17.60;;;5.30;99.90;;;;;;5019998;28;20464;-46
2021/04/02 03:31:31;;;;;;;24.57;17.40;;;5.30;99.90;;;;;;5020298;28;20885;-43
2021/04/02 03:34:00;;;;;;;27.17;19.07;;;5.40;99.90;;;;;;5019851;28;20464;-44
2021/04/02 03:36:28;;;;;;;26.37;20.17;;;5.40;99.90;;;;;;5020325;28;20547;-45
2021/04/02 03:38:56;;;;;;;33.57;19.73;;;5.40;61.10;;;;;;5019895;28;20509;-47
2021/04/02 03:41:26;;;;;;;26.13;21.20;;;5.30;99.90;;;;;;5019553;28;20472;-44
2021/04/02 03:43:55;;;;;;;28.90;21.93;;;5.30;99.90;;;;;;5020071;28;20792;-44
2021/04/02 03:46:23;;;;;;;26.83;19.13;;;5.20;99.90;;;;;;5020109;28;20558;-43
2021/04/02 03:48:51;;;;;;;30.17;19.80;;;5.10;1.00;;;;;;5020190;28;20522;-45
2021/04/02 03:51:25;;;;;;;29.13;20.20;;;5.10;3.40;;;;;;5019778;28;20464;-47
2021/04/02 03:53:56;;;;;;;28.73;18.87;;;5.20;99.90;;;;;;5019789;28;20456;-46
2021/04/02 03:56:27;;;;;;;32.53;19.20;;;5.00;1.00;;;;;;5020035;28;20464;-49
2021/04/02 03:58:58;;;;;;;23.33;18.10;;;5.10;99.90;;;;;;5019352;28;20464;-44
2021/04/02 04:01:33;;;;;;;31.50;20.30;;;5.10;99.90;;;;;;5019618;28;20888;-43
2021/04/02 04:04:02;;;;;;;29.73;20.67;;;4.90;1.00;;;;;;5010375;28;20490;-43
2021/04/02 04:06:31;;;;;;;32.67;20.47;;;4.90;99.90;;;;;;5018235;28;20479;-43
2021/04/02 04:09:01;;;;;;;34.47;22.90;;;4.90;99.90;;;;;;5018499;28;20460;-44
2021/04/02 04:11:32;;;;;;;38.03;21.27;;;4.80;99.90;;;;;;5019268;28;20741;-43
2021/04/02 04:14:01;;;;;;;39.40;22.53;;;4.80;1.00;;;;;;5018744;28;20461;-44
2021/04/02 04:16:28;;;;;;;41.90;24.93;;;4.90;1.00;;;;;;5019920;28;20888;-48
2021/04/02 04:18:58;;;;;;;40.30;21.27;;;5.00;99.90;;;;;;5018599;28;20464;-43
2021/04/02 04:21:30;;;;;;;34.27;20.37;;;5.00;99.90;;;;;;5018961;28;20456;-44
2021/04/02 04:23:58;;;;;;;43.50;22.17;;;4.80;99.90;;;;;;5018813;28;20511;-45
2021/04/02 04:26:29;;;;;;;46.17;22.73;;;4.80;1.00;;;;;;5019539;28;20467;-45
2021/04/02 04:28:57;;;;;;;50.83;25.60;;;4.80;58.80;;;;;;5018042;28;20463;-43
2021/04/02 04:31:26;;;;;;;50.90;25.17;;;4.80;99.90;;;;;;5019110;28;20465;-46
2021/04/02 04:33:54;;;;;;;53.73;27.67;;;4.80;1.00;;;;;;5018534;28;20477;-44
2021/04/02 04:36:22;;;;;;;45.47;25.50;;;4.70;1.00;;;;;;5018426;28;20467;-47
2021/04/02 04:38:53;;;;;;;55.13;27.47;;;4.60;55.20;;;;;;5015738;28;20751;-44
2021/04/02 04:41:20;;;;;;;36.10;21.73;;;4.70;99.90;;;;;;5018006;28;20460;-46
2021/04/02 04:43:47;;;;;;;35.67;20.50;;;4.50;99.90;;;;;;5018745;28;20491;-43
2021/04/02 04:46:14;;;;;;;35.77;19.07;;;4.50;99.90;;;;;;5017801;28;20460;-45
2021/04/02 04:48:41;;;;;;;28.53;18.67;;;4.50;99.90;;;;;;5019075;28;20464;-44
2021/04/02 04:51:09;;;;;;;28.40;17.23;;;4.60;99.90;;;;;;5017998;28;20818;-44
2021/04/02 04:53:39;;;;;;;25.90;17.93;;;4.50;99.90;;;;;;5019293;28;20460;-43
2021/04/02 04:56:07;;;;;;;22.60;16.87;;;4.50;99.90;;;;;;5017004;28;20759;-44
2021/04/02 04:58:36;;;;;;;24.70;17.07;;;4.50;99.90;;;;;;5005419;28;20465;-43
2021/04/02 05:01:06;;;;;;;24.53;14.60;;;4.60;99.90;;;;;;5014183;28;20468;-47
2021/04/02 05:03:37;;;;;;;22.30;15.60;;;4.50;99.90;;;;;;5004917;28;20506;-46
2021/04/02 05:06:06;;;;;;;22.13;14.03;;;4.60;99.90;;;;;;5014592;28;20618;-45
2021/04/02 05:08:40;;;;;;;18.07;13.07;;;4.70;99.90;;;;;;5017553;28;20513;-44
2021/04/02 05:11:08;;;;;;;19.90;12.77;;;4.50;99.90;;;;;;5010809;28;20907;-47
2021/04/02 05:13:40;;;;;;;21.93;12.80;;;4.50;99.90;;;;;;5008205;28;20503;-46
2021/04/02 05:16:07;;;;;;;19.37;13.00;;;4.50;99.90;;;;;;5014093;28;20877;-46
2021/04/02 05:18:34;;;;;;;16.80;12.30;;;4.60;99.90;;;;;;5010801;28;20470;-44
2021/04/02 05:21:00;;;;;;;21.50;14.00;;;4.50;99.90;;;;;;5003098;28;20469;-44
2021/04/02 05:23:28;;;;;;;17.33;13.27;;;4.50;99.90;;;;;;4998461;28;20497;-44
2021/04/02 05:25:55;;;;;;;20.37;13.37;;;4.40;99.90;;;;;;4998606;28;20743;-44
2021/04/02 05:28:22;;;;;;;20.70;13.00;;;4.50;99.90;;;;;;4998547;28;20468;-46
2021/04/02 05:30:49;;;;;;;21.20;13.40;;;4.60;99.90;;;;;;4998611;28;20501;-46
2021/04/02 05:33:15;;;;;;;24.60;13.53;;;4.60;99.90;;;;;;4998266;28;20472;-43
2021/04/02 05:35:42;;;;;;;21.33;14.27;;;4.60;99.90;;;;;;4998680;28;20817;-45
2021/04/02 05:38:09;;;;;;;18.73;13.97;;;4.60;99.90;;;;;;4999883;28;20464;-43
2021/04/02 05:40:37;;;;;;;17.80;13.73;;;4.60;99.90;;;;;;5018014;28;20503;-45
2021/04/02 05:43:11;;;;;;;16.67;13.40;;;4.60;99.90;;;;;;5017252;28;20542;-45
2021/04/02 05:45:39;;;;;;;19.03;13.50;;;4.60;99.90;;;;;;5017903;28;20464;-44
2021/04/02 05:48:08;;;;;;;22.80;13.40;;;4.60;99.90;;;;;;5017748;28;20913;-47
2021/04/02 05:50:35;;;;;;;19.13;13.17;;;4.60;99.90;;;;;;5017967;28;20772;-44
2021/04/02 05:53:05;;;;;;;19.13;14.13;;;4.70;99.90;;;;;;5017798;28;20907;-49
2021/04/02 05:55:35;;;;;;;25.30;15.13;;;4.60;99.90;;;;;;5017479;28;20935;-47
2021/04/02 05:58:04;;;;;;;23.57;16.00;;;4.60;99.90;;;;;;5017594;28;20520;-48
2021/04/02 06:00:34;;;;;;;20.30;13.87;;;4.60;99.90;;;;;;5017762;28;20479;-44
2021/04/02 06:03:03;;;;;;;21.03;14.80;;;4.70;99.90;;;;;;5010172;28;20538;-47
2021/04/02 06:05:29;;;;;;;16.70;14.77;;;4.70;99.90;;;;;;5013529;28;20554;-48
2021/04/02 06:07:57;;;;;;;17.27;13.37;;;4.70;99.90;;;;;;5017064;28;20460;-45
2021/04/02 06:10:26;;;;;;;18.83;14.53;;;4.60;99.90;;;;;;5017333;28;20491;-50
2021/04/02 06:12:57;;;;;;;25.87;15.10;;;4.40;99.90;;;;;;5017281;28;20460;-44
2021/04/02 06:15:25;;;;;;;22.50;15.60;;;4.50;99.90;;;;;;5017201;28;20499;-44
2021/04/02 06:17:59;;;;;;;21.47;16.70;;;4.60;99.90;;;;;;5017289;28;20463;-49
2021/04/02 06:20:28;;;;;;;25.83;16.53;;;4.80;99.90;;;;;;5006537;28;20463;-43
2021/04/02 06:23:10;;;;;;;20.80;15.60;;;4.70;99.90;;;;;;5016579;28;20474;-44
2021/04/02 06:25:42;;;;;;;23.47;15.63;;;4.50;99.90;;;;;;5017496;28;20474;-44
2021/04/02 06:28:19;;;;;;;22.83;16.03;;;4.60;99.90;;;;;;5003045;28;20906;-44
2021/04/02 06:31:03;;;;;;;22.33;15.83;;;4.40;99.90;;;;;;4998187;28;20558;-46
2021/04/02 06:33:40;;;;;;;21.70;16.03;;;4.50;99.90;;;;;;4997591;28;20464;-45
2021/04/02 06:36:18;;;;;;;26.77;17.23;;;4.50;99.90;;;;;;5007389;28;20896;-46
2021/04/02 06:38:48;;;;;;;30.70;17.67;;;4.50;99.90;;;;;;5017536;28;20555;-44
2021/04/02 06:41:19;;;;;;;29.63;18.17;;;4.60;99.90;;;;;;5017435;28;20799;-45
2021/04/02 06:43:47;;;;;;;26.40;19.30;;;4.60;99.90;;;;;;5017159;28;20962;-47
2021/04/02 06:46:18;;;;;;;28.90;19.37;;;4.60;99.90;;;;;;5017813;28;20574;-44
2021/04/02 06:48:45;;;;;;;34.50;21.47;;;4.70;99.90;;;;;;5017322;28;20823;-45
2021/04/02 06:51:19;;;;;;;32.87;19.67;;;4.50;99.90;;;;;;5017160;28;20764;-48
2021/04/02 06:53:47;;;;;;;35.20;21.00;;;4.60;99.90;;;;;;5017729;28;20517;-48
2021/04/02 06:56:15;;;;;;;32.63;21.90;;;4.70;99.90;;;;;;5020954;28;20467;-44
2021/04/02 06:58:44;;;;;;;44.93;21.83;;;4.90;67.60;;;;;;5021166;28;20464;-45
2021/04/02 07:01:15;;;;;;;32.70;20.07;;;5.10;1.00;;;;;;5021012;28;20909;-45
2021/04/02 07:03:44;;;;;;;33.63;19.97;;;5.10;1.00;;;;;;5010075;28;20500;-46
2021/04/02 07:06:11;;;;;;;27.27;19.37;;;5.00;99.90;;;;;;5010984;28;20952;-45
2021/04/02 07:08:39;;;;;;;26.23;18.70;;;5.10;1.00;;;;;;5020358;28;20487;-46
2021/04/02 07:11:07;;;;;;;30.07;18.90;;;5.20;1.00;;;;;;5020368;28;20467;-48
2021/04/02 07:13:36;;;;;;;26.03;18.13;;;5.30;99.90;;;;;;5020251;28;20459;-45
2021/04/02 07:16:11;;;;;;;28.70;16.57;;;5.30;99.90;;;;;;5020725;28;20511;-45
2021/04/02 07:18:39;;;;;;;23.87;16.30;;;5.20;99.90;;;;;;5020982;28;20490;-44
2021/04/02 07:21:06;;;;;;;28.40;18.00;;;5.30;99.90;;;;;;5020934;28;20471;-44
2021/04/02 07:23:34;;;;;;;24.20;17.90;;;5.30;99.90;;;;;;5020089;28;20801;-47
2021/04/02 07:26:01;;;;;;;23.30;15.63;;;5.30;99.90;;;;;;5020637;28;20467;-45
2021/04/02 07:28:29;;;;;;;29.73;17.73;;;5.30;1.00;;;;;;5020873;28;20467;-46
2021/04/02 07:30:57;;;;;;;25.70;15.80;;;5.40;1.00;;;;;;5014573;28;20478;-44
2021/04/02 07:33:26;;;;;;;26.10;17.63;;;5.30;1.00;;;;;;5004799;28;20776;-44
2021/04/02 07:35:58;;;;;;;23.37;15.93;;;5.20;99.90;;;;;;5002951;28;20600;-46
2021/04/02 07:38:26;;;;;;;21.73;15.23;;;5.20;99.90;;;;;;5020973;28;20885;-44
2021/04/02 07:40:53;;;;;;;23.47;14.87;;;5.20;99.90;;;;;;5000835;28;20916;-45
2021/04/02 07:43:20;;;;;;;23.27;15.60;;;5.00;99.90;;;;;;5000219;28;20596;-48
2021/04/02 07:45:52;;;;;;;27.83;16.47;;;4.90;99.90;;;;;;5000856;28;20491;-45
2021/04/02 07:48:26;;;;;;;24.23;15.20;;;5.00;99.90;;;;;;5005453;28;20491;-45
2021/04/02 07:50:56;;;;;;;21.90;16.60;;;4.90;99.90;;;;;;5020452;28;20466;-45
2021/04/02 07:53:42;;;;;;;26.00;18.20;;;4.90;1.00;;;;;;5020394;28;20475;-44
2021/04/02 07:56:11;;;;;;;24.97;17.27;;;4.70;99.90;;;;;;5018956;28;20460;-44
2021/04/02 07:58:47;;;;;;;25.50;17.50;;;4.80;1.00;;;;;;5019954;28;20464;-44
2021/04/02 08:01:16;;;;;;;23.03;17.20;;;5.00;1.00;;;;;;5019322;28;20827;-46
2021/04/02 08:03:45;;;;;;;23.37;16.80;;;5.20;99.90;;;;;;5011053;28;20524;-46
2021/04/02 08:06:29;;;;;;;21.03;14.17;;;5.30;99.90;;;;;;5015346;28;20965;-44
2021/04/02 08:08:56;;;;;;;20.60;14.27;;;5.10;99.90;;;;;;5019706;28;20526;-45
2021/04/02 08:11:26;;;;;;;20.80;14.50;;;5.10;99.90;;;;;;5019046;28;20460;-44
2021/04/02 08:13:58;;;;;;;16.03;12.93;;;5.30;1.00;;;;;;5019759;28;20468;-44
2021/04/02 08:16:43;;;;;;;20.10;14.47;;;5.50;1.00;;;;;;5019481;28;20463;-44
2021/04/02 08:19:12;;;;;;;14.77;12.50;;;5.40;1.00;;;;;;5019087;28;20840;-45
2021/04/02 08:21:40;;;;;;;17.43;13.20;;;5.40;54.60;;;;;;5019766;28;20775;-44
2021/04/02 08:24:10;;;;;;;18.47;13.90;;;5.30;1.00;;;;;;5019224;28;20913;-45
2021/04/02 08:26:38;;;;;;;28.17;17.00;;;5.00;99.90;;;;;;5019188;28;20897;-44
2021/04/02 08:29:06;;;;;;;27.17;16.70;;;5.00;1.00;;;;;;5018632;28;20887;-48
2021/04/02 08:31:33;;;;;;;22.37;15.07;;;5.10;1.00;;;;;;5019909;28;20555;-44
2021/04/02 08:34:01;;;;;;;20.63;14.17;;;5.30;49.90;;;;;;5019022;28;20470;-47
2021/04/02 08:36:31;;;;;;;19.53;13.37;;;5.40;25.30;;;;;;5018979;28;20471;-44
2021/04/02 08:38:58;;;;;;;17.77;14.90;;;5.60;99.90;;;;;;5018115;28;20965;-42
2021/04/02 08:41:29;;;;;;;19.43;13.77;;;5.70;99.90;;;;;;5018390;28;20468;-43
2021/04/02 08:43:56;;;;;;;15.97;12.97;;;5.80;99.90;;;;;;5015894;28;20578;-46
2021/04/02 08:46:40;;;;;;;17.80;13.10;;;5.90;99.90;;;;;;5018406;28;20467;-42
2021/04/02 08:49:07;;;;;;;20.20;13.37;;;6.10;1.00;;;;;;4999484;28;20465;-45
2021/04/02 08:51:38;;;;;;;22.23;14.80;;;6.10;1.00;;;;;;5008205;28;20928;-43
2021/04/02 08:54:11;;;;;;;20.20;16.53;;;6.00;1.00;;;;;;5018967;28;20465;-42
2021/04/02 08:56:40;;;;;;;21.17;15.67;;;5.90;1.00;;;;;;5018268;28;20471;-44
2021/04/02 08:59:09;;;;;;;26.80;16.83;;;5.70;1.00;;;;;;5017592;28;20550;-42
2021/04/02 09:01:41;;;;;;;26.03;16.10;;;5.90;1.00;;;;;;5008985;28;20464;-45
2021/04/02 09:04:08;;;;;;;25.20;16.87;;;5.90;1.00;;;;;;5003545;28;20499;-45
2021/04/02 09:06:36;;;;;;;27.40;19.40;;;6.00;99.90;;;;;;5008572;28;20574;-44
2021/04/02 09:09:04;;;;;;;26.60;17.57;;;5.90;1.00;;;;;;5018022;28;20464;-49
2021/04/02 09:11:34;;;;;;;23.23;16.00;;;6.10;1.00;;;;;;5018433;28;20464;-42
2021/04/02 09:14:08;;;;;;;25.47;16.33;;;6.40;99.90;;;;;;5018186;28;20465;-42
2021/04/02 09:16:37;;;;;;;21.90;15.10;;;6.40;99.90;;;;;;5018729;28;20734;-45
2021/04/02 09:19:03;;;;;;;19.90;15.40;;;6.50;99.90;;;;;;5017374;28;20839;-43
2021/04/02 09:21:30;;;;;;;25.90;16.07;;;6.60;96.40;;;;;;5012293;28;20468;-42
2021/04/02 09:24:03;;;;;;;19.40;13.00;;;7.00;41.30;;;;;;4998689;28;20938;-42
2021/04/02 09:26:36;;;;;;;22.77;14.47;;;7.10;1.00;;;;;;4999044;28;20483;-42
2021/04/02 09:29:14;;;;;;;19.00;14.80;;;6.90;1.00;;;;;;4989927;28;20456;-42
2021/04/02 09:32:02;;;;;;;20.03;14.30;;;7.10;1.00;;;;;;5017975;28;20464;-42
2021/04/02 09:34:29;;;;;;;17.87;13.50;;;7.00;1.00;;;;;;4998016;28;20452;-44
2021/04/02 09:36:56;;;;;;;23.30;14.57;;;7.00;1.00;;;;;;5017529;28;20471;-45
2021/04/02 09:39:24;;;;;;;19.80;15.27;;;6.90;1.00;;;;;;5005010;28;20465;-43
2021/04/02 09:41:52;;;;;;;17.53;14.60;;;6.60;1.00;;;;;;5000357;28;20943;-42
2021/04/02 09:44:21;;;;;;;25.03;14.70;;;6.50;45.70;;;;;;5017974;28;20488;-45
2021/04/02 09:46:51;;;;;;;21.10;14.70;;;6.40;51.60;;;;;;5016579;28;20530;-43
2021/04/02 09:49:19;;;;;;;20.83;15.23;;;6.40;49.20;;;;;;5017907;28;20467;-42
2021/04/02 09:51:48;;;;;;;22.47;13.63;;;6.50;25.00;;;;;;5016632;28;20468;-44
2021/04/02 09:54:26;;;;;;;17.87;13.07;;;6.40;36.60;;;;;;5017543;28;20558;-43
2021/04/02 09:56:58;;;;;;;20.77;13.50;;;6.40;60.80;;;;;;5017030;28;20483;-41
2021/04/02 09:59:25;;;;;;;21.10;14.03;;;6.40;16.10;;;;;;5018122;28;20963;-42
2021/04/02 10:01:57;;;;;;;22.47;15.57;;;6.40;23.30;;;;;;5017005;28;20522;-42
2021/04/02 10:04:25;;;;;;;19.97;14.73;;;6.30;1.00;;;;;;5006528;28;20488;-42
2021/04/02 10:06:52;;;;;;;19.07;15.13;;;6.30;7.30;;;;;;5016499;28;20468;-42
2021/04/02 10:09:19;;;;;;;19.07;13.93;;;6.20;57.40;;;;;;5017198;28;20460;-42
2021/04/02 10:11:48;;;;;;;18.43;12.43;;;6.10;40.30;;;;;;5017783;28;20555;-42
2021/04/02 10:14:18;;;;;;;25.67;12.80;;;6.00;83.80;;;;;;5016410;28;20456;-44
2021/04/02 10:16:48;;;;;;;19.20;12.70;;;6.10;99.90;;;;;;5011901;28;20457;-44
2021/04/02 10:19:20;;;;;;;19.10;11.87;;;6.20;99.90;;;;;;5001795;28;20759;-45
2021/04/02 10:21:48;;;;;;;16.33;11.40;;;6.10;57.60;;;;;;5005803;28;20607;-45
2021/04/02 10:24:15;;;;;;;17.17;12.40;;;6.30;32.70;;;;;;5017623;28;20964;-44
2021/04/02 10:26:43;;;;;;;14.20;10.60;;;6.30;1.00;;;;;;5017980;28;20467;-45
2021/04/02 10:29:09;;;;;;;15.47;10.17;;;6.50;1.00;;;;;;5018582;28;20968;-46
2021/04/02 10:31:36;;;;;;;14.47;9.73;;;6.40;1.00;;;;;;5021305;28;20900;-45
2021/04/02 10:34:04;;;;;;;11.90;10.10;;;6.70;1.00;;;;;;5017374;28;20755;-45
2021/04/02 10:36:33;;;;;;;13.43;10.80;;;6.90;1.00;;;;;;5002239;28;20465;-49
2021/04/02 10:39:00;;;;;;;15.27;10.40;;;7.10;1.00;;;;;;5010490;28;20468;-46
2021/04/02 10:41:28;;;;;;;13.67;10.43;;;7.20;1.00;;;;;;5020901;28;20470;-46
2021/04/02 10:43:55;;;;;;;11.20;9.80;;;7.40;1.00;;;;;;5020921;28;20510;-43
2021/04/02 10:46:21;;;;;;;10.07;8.90;;;7.60;1.00;;;;;;5021439;28;20515;-48
2021/04/02 10:48:48;;;;;;;9.03;8.10;;;7.40;1.00;;;;;;5021390;28;20460;-43
2021/04/02 10:51:15;;;;;;;12.40;10.47;;;7.30;1.00;;;;;;5020819;28;20464;-43
2021/04/02 10:53:42;;;;;;;12.70;9.70;;;7.20;1.00;;;;;;5017665;28;20467;-42
2021/04/02 10:56:09;;;;;;;12.07;7.67;;;7.30;1.00;;;;;;5019031;28;20467;-47
2021/04/02 10:58:35;;;;;;;8.50;7.80;;;7.20;1.00;;;;;;5020998;28;20460;-45
2021/04/02 11:01:06;;;;;;;13.50;8.00;;;7.10;1.00;;;;;;5019592;28;20472;-45
2021/04/02 11:03:33;;;;;;;8.33;7.50;;;7.10;1.00;;;;;;5009492;28;20500;-42
2021/04/02 11:05:59;;;;;;;12.33;10.20;;;7.10;1.00;;;;;;5014444;28;20502;-46
2021/04/02 11:08:27;;;;;;;9.77;8.77;;;7.30;1.00;;;;;;5019722;28;20815;-44
2021/04/02 11:10:59;;;;;;;10.40;9.40;;;7.20;1.00;;;;;;5018741;28;20530;-46
2021/04/02 11:13:25;;;;;;;9.33;8.33;;;7.30;1.00;;;;;;5019540;28;20507;-43
2021/04/02 11:15:57;;;;;;;10.33;9.33;;;7.60;1.00;;;;;;5019042;28;20464;-48
2021/04/02 11:18:23;;;;;;;9.83;8.93;;;7.70;1.00;;;;;;5020751;28;20468;-46
2021/04/02 11:20:50;;;;;;;12.63;8.90;;;7.60;1.00;;;;;;5019472;28;20472;-45
2021/04/02 11:23:17;;;;;;;10.17;7.73;;;7.50;1.00;;;;;;5020104;28;20749;-50
2021/04/02 11:25:48;;;;;;;11.70;9.40;;;7.60;1.00;;;;;;5019127;28;20891;-42
2021/04/02 11:28:14;;;;;;;9.07;8.17;;;7.50;1.00;;;;;;5020082;28;20460;-45
2021/04/02 11:30:41;;;;;;;8.10;7.30;;;7.40;1.00;;;;;;5019920;28;20542;-43
2021/04/02 11:33:08;;;;;;;9.77;8.87;;;7.30;1.00;;;;;;5019661;28;20435;-44
2021/04/02 11:35:35;;;;;;;13.33;9.03;;;7.40;1.00;;;;;;5018952;28;20460;-45
2021/04/02 11:38:02;;;;;;;9.83;7.97;;;7.40;1.00;;;;;;5019220;28;20490;-50
2021/04/02 11:40:29;;;;;;;12.27;7.57;;;7.30;1.00;;;;;;5019372;28;20758;-46
2021/04/02 11:42:58;;;;;;;9.50;8.40;;;7.60;1.00;;;;;;5018394;28;20464;-47
2021/04/02 11:45:25;;;;;;;10.13;7.43;;;7.70;1.00;;;;;;5018989;28;20648;-44
2021/04/02 11:47:52;;;;;;;9.03;7.53;;;7.90;1.00;;;;;;5019375;28;20910;-44
2021/04/02 11:50:19;;;;;;;10.30;7.70;;;7.60;1.00;;;;;;5018863;28;20899;-43
2021/04/02 11:52:45;;;;;;;12.33;8.80;;;7.60;1.00;;;;;;5019366;28;20472;-46
2021/04/02 11:55:13;;;;;;;8.30;7.20;;;7.60;1.00;;;;;;5019379;28;20462;-45
2021/04/02 11:57:44;;;;;;;9.73;8.70;;;7.60;1.00;;;;;;5018855;28;20877;-42
2021/04/02 12:00:17;;;;;;;8.53;7.63;;;7.60;1.00;;;;;;5019639;28;20903;-44
2021/04/02 12:02:46;;;;;;;13.33;8.90;;;7.70;1.00;;;;;;5014473;28;20485;-43
2021/04/02 12:05:14;;;;;;;13.83;10.10;;;7.50;1.00;;;;;;5011554;28;20558;-43
2021/04/02 12:07:40;;;;;;;12.60;11.30;;;7.40;1.00;;;;;;5019105;28;20475;-42
2021/04/02 12:10:10;;;;;;;14.40;10.47;;;7.30;1.00;;;;;;5019158;28;20456;-45
2021/04/02 12:12:37;;;;;;;12.87;11.40;;;7.20;1.00;;;;;;5018933;28;20471;-47
2021/04/02 12:15:07;;;;;;;14.50;11.80;;;7.30;1.00;;;;;;5018551;28;20483;-47
2021/04/02 12:17:36;;;;;;;16.03;13.30;;;7.40;1.00;;;;;;5019184;28;20464;-46
2021/04/02 12:20:03;;;;;;;26.83;22.33;;;7.30;1.00;;;;;;5018710;28;20503;-45
2021/04/02 12:22:29;;;;;;;33.13;27.53;;;7.20;1.00;;;;;;5019261;28;20460;-43
2021/04/02 12:24:59;;;;;;;34.87;28.43;;;6.90;1.00;;;;;;5018551;28;20940;-42
2021/04/02 12:27:25;;;;;;;41.97;29.37;;;6.90;1.00;;;;;;5019241;28;20463;-43
2021/04/02 12:29:55;;;;;;;33.80;28.90;;;6.80;1.00;;;;;;5018616;28;20460;-42
2021/04/02 12:32:22;;;;;;;36.93;30.90;;;6.80;1.00;;;;;;5018799;28;20464;-43
2021/04/02 12:34:50;;;;;;;39.13;29.93;;;6.70;1.00;;;;;;5018899;28;20455;-48
2021/04/02 12:37:17;;;;;;;32.50;27.43;;;6.60;1.00;;;;;;5011805;28;20514;-42
2021/04/02 12:39:46;;;;;;;32.73;27.97;;;6.50;1.00;;;;;;5017292;28;20467;-43
2021/04/02 12:42:15;;;;;;;33.20;27.63;;;6.40;1.00;;;;;;5018848;28;20523;-43
2021/04/02 12:44:44;;;;;;;35.80;30.70;;;6.30;1.00;;;;;;5019090;28;20492;-43
2021/04/02 12:47:10;;;;;;;32.10;26.70;;;6.70;1.00;;;;;;5018481;28;20530;-46
2021/04/02 12:49:37;;;;;;;26.97;23.87;;;7.00;1.00;;;;;;5019008;28;20464;-46
2021/04/02 12:52:05;;;;;;;32.97;25.87;;;7.20;1.00;;;;;;5018232;28;20477;-46